createdAt,value
2022-11-05T00:00:06.959Z,31.67
2022-11-05T00:02:53.872Z,29.88
2022-11-05T00:05:40.879Z,35.75
2022-11-05T00:08:27.758Z,29.95
2022-11-05T00:10:56.834Z,25.85
2022-11-05T00:13:43.820Z,32.15
2022-11-05T00:16:30.100Z,37.90
2022-11-05T00:25:06.483Z,29.52
2022-11-05T00:27:35.077Z,36.00
2022-11-05T00:30:07.948Z,34.13
2022-11-05T00:32:37.621Z,31.58
2022-11-05T00:35:07.604Z,35.90
2022-11-05T00:37:36.081Z,41.28
2022-11-05T00:40:04.774Z,35.28
2022-11-05T00:42:50.965Z,37.20
2022-11-05T00:45:19.035Z,47.08
2022-11-05T00:48:06.122Z,34.05
2022-11-05T00:50:34.942Z,36.15
2022-11-05T00:53:04.129Z,34.30
2022-11-05T00:55:42.716Z,41.38
2022-11-05T00:58:21.106Z,34.67
2022-11-05T01:00:54.642Z,38.83
2022-11-05T01:03:26.809Z,37.95
2022-11-05T01:06:06.883Z,36.55
2022-11-05T01:08:34.713Z,33.45
2022-11-05T01:11:33.698Z,34.53
2022-11-05T01:14:05.681Z,40.20
2022-11-05T01:16:34.675Z,33.88
2022-11-05T01:19:04.730Z,32.10
2022-11-05T01:21:33.205Z,35.00
2022-11-05T01:24:02.654Z,37.13
2022-11-05T01:26:32.447Z,37.55
2022-11-05T01:29:03.415Z,37.75
2022-11-05T01:31:31.508Z,35.22
2022-11-05T01:34:01.961Z,36.95
2022-11-05T01:36:30.003Z,33.70
2022-11-05T01:38:57.517Z,37.58
2022-11-05T01:41:25.116Z,36.47
2022-11-05T01:43:56.720Z,33.63
2022-11-05T01:46:40.005Z,30.73
2022-11-05T01:49:33.344Z,30.83
2022-11-05T01:52:08.073Z,30.42
2022-11-05T01:54:36.774Z,25.20
2022-11-05T01:57:11.053Z,26.63
2022-11-05T01:59:47.211Z,22.55
2022-11-05T02:02:16.156Z,28.38
2022-11-05T02:04:51.306Z,23.98
2022-11-05T02:07:19.314Z,26.42
2022-11-05T02:09:57.463Z,27.67
2022-11-05T02:12:30.013Z,36.38
2022-11-05T02:32:35.964Z,34.15
2022-11-05T03:01:53.392Z,28.80
2022-11-05T03:04:25.328Z,32.78
2022-11-05T03:07:05.459Z,23.73
2022-11-05T03:10:00.684Z,21.85
2022-11-05T03:12:59.348Z,26.38
2022-11-05T03:15:46.724Z,26.42
2022-11-05T03:28:08.973Z,26.83
2022-11-05T03:30:39.299Z,30.80
2022-11-05T03:33:16.202Z,35.17
2022-11-05T03:35:54.188Z,39.88
2022-11-05T03:38:29.210Z,42.92
2022-11-05T03:41:01.706Z,49.22
2022-11-05T03:43:35.936Z,46.47
2022-11-05T03:46:11.195Z,44.88
2022-11-05T03:48:48.756Z,53.33
2022-11-05T03:51:30.613Z,50.10
2022-11-05T03:54:03.647Z,51.80
2022-11-05T03:56:49.021Z,50.72
2022-11-05T03:59:18.503Z,54.50
2022-11-05T04:01:45.698Z,48.67
2022-11-05T04:04:12.953Z,44.45
2022-11-05T04:06:59.288Z,50.10
2022-11-05T04:09:45.601Z,53.25
2022-11-05T04:12:31.720Z,47.40
2022-11-05T04:14:59.160Z,48.35
2022-11-05T04:17:26.333Z,54.35
2022-11-05T04:34:55.503Z,46.95
2022-11-05T04:37:22.889Z,47.70
